createdAt,value
2019-02-19T00:02:59.797Z,28.47
2019-02-19T00:08:01.599Z,42.33
2019-02-19T00:13:03.402Z,32.97
2019-02-19T00:18:05.204Z,33.33
2019-02-19T00:23:07.008Z,34.47
2019-02-19T00:28:09.018Z,45.10
2019-02-19T00:33:10.802Z,55.30
2019-02-19T00:38:12.650Z,52.57
2019-02-19T00:43:14.635Z,53.20
2019-02-19T00:48:16.446Z,54.80
2019-02-19T00:53:18.272Z,56.17
2019-02-19T00:58:20.461Z,53.30
2019-02-19T01:03:23.485Z,53.37
2019-02-19T01:08:25.500Z,58.10
2019-02-19T01:13:27.306Z,52.40
2019-02-19T01:18:29.520Z,55.47
2019-02-19T01:23:31.328Z,54.50
2019-02-19T01:28:33.129Z,54.87
2019-02-19T01:33:35.248Z,51.93
2019-02-19T01:38:37.437Z,52.00
2019-02-19T01:43:39.840Z,49.73
2019-02-19T01:48:41.629Z,45.87
2019-02-19T01:53:43.930Z,52.27
2019-02-19T01:58:45.726Z,54.80
2019-02-19T02:03:47.523Z,53.37
2019-02-19T02:08:50.031Z,53.90
2019-02-19T02:13:52.642Z,57.40
2019-02-19T02:18:54.851Z,54.70
2019-02-19T02:23:56.844Z,54.67
2019-02-19T02:28:58.739Z,58.33
2019-02-19T02:34:00.914Z,62.40
2019-02-19T02:39:03.050Z,53.93
2019-02-19T02:44:05.093Z,50.23
2019-02-19T02:49:06.770Z,50.33
2019-02-19T02:54:08.560Z,34.70
2019-02-19T02:59:10.787Z,44.37
2019-02-19T03:04:12.633Z,39.57
2019-02-19T03:09:14.514Z,42.87
2019-02-19T03:14:17.196Z,41.43
2019-02-19T03:19:18.976Z,36.60
2019-02-19T03:24:20.944Z,34.30
2019-02-19T03:29:22.721Z,32.53
2019-02-19T03:34:24.706Z,42.90
2019-02-19T03:39:26.566Z,38.07
2019-02-19T03:44:28.414Z,40.17
2019-02-19T03:49:30.243Z,30.10
2019-02-19T03:54:32.507Z,38.87
2019-02-19T03:59:34.831Z,42.03
2019-02-19T04:04:36.658Z,35.37
2019-02-19T04:09:38.486Z,30.67
2019-02-19T04:14:40.317Z,29.13
2019-02-19T04:19:42.455Z,33.00
2019-02-19T04:24:44.190Z,34.90
2019-02-19T04:29:46.424Z,27.50
2019-02-19T04:34:48.552Z,31.67
2019-02-19T04:39:50.894Z,30.60
2019-02-19T04:44:53.141Z,26.47
2019-02-19T04:49:55.415Z,24.17
2019-02-19T04:54:57.176Z,32.97
2019-02-19T04:59:59.035Z,24.47
2019-02-19T05:05:00.797Z,33.13
2019-02-19T05:10:03.718Z,37.10
2019-02-19T05:15:08.266Z,34.17
2019-02-19T05:20:10.103Z,36.50
2019-02-19T05:25:12.203Z,35.70
2019-02-19T05:30:14.402Z,37.80
2019-02-19T05:35:16.250Z,43.60
2019-02-19T05:40:18.340Z,43.17
2019-02-19T05:45:20.250Z,32.90
2019-02-19T05:50:22.055Z,31.47
2019-02-19T05:55:23.881Z,47.07
2019-02-19T06:00:25.682Z,34.07
2019-02-19T06:05:27.887Z,36.03
2019-02-19T06:10:29.630Z,39.33
2019-02-19T06:15:31.381Z,40.67
2019-02-19T06:20:33.205Z,39.70
2019-02-19T06:25:35.426Z,36.30
2019-02-19T06:30:37.230Z,35.97
2019-02-19T06:35:39.063Z,27.13
2019-02-19T06:40:40.838Z,27.97
2019-02-19T06:45:59.705Z,26.30
2019-02-19T06:51:01.761Z,19.57
2019-02-19T06:56:29.866Z,25.57
2019-02-19T07:01:36.505Z,24.93
2019-02-19T07:06:38.621Z,27.30
2019-02-19T07:11:40.423Z,23.07
2019-02-19T07:16:42.227Z,27.73
2019-02-19T07:21:44.038Z,24.20
2019-02-19T07:26:45.840Z,23.83
2019-02-19T07:31:47.647Z,20.30
2019-02-19T07:36:49.865Z,17.77
2019-02-19T07:41:51.874Z,13.37
2019-02-19T07:46:55.210Z,18.50
2019-02-19T07:51:57.019Z,15.53
2019-02-19T07:56:58.821Z,15.87
2019-02-19T08:02:00.934Z,18.17
2019-02-19T08:07:03.153Z,16.63
2019-02-19T08:12:04.912Z,17.87
2019-02-19T08:17:06.672Z,18.23
2019-02-19T08:22:08.425Z,14.60
2019-02-19T08:27:10.680Z,15.53
2019-02-19T08:32:12.438Z,17.43
2019-02-19T08:37:14.800Z,17.00
2019-02-19T08:42:16.500Z,14.37
2019-02-19T08:47:18.507Z,13.30
2019-02-19T08:52:20.171Z,14.00
2019-02-19T08:57:22.251Z,15.90
2019-02-19T09:02:23.994Z,15.57
2019-02-19T09:07:26.243Z,13.27
2019-02-19T09:12:28.466Z,13.80
2019-02-19T09:17:30.286Z,14.80
2019-02-19T09:22:32.135Z,14.40
2019-02-19T09:27:34.054Z,16.00
2019-02-19T09:32:36.154Z,20.80
2019-02-19T09:37:38.256Z,13.43
2019-02-19T09:42:40.362Z,21.00
2019-02-19T09:47:42.265Z,15.97
2019-02-19T09:52:44.051Z,16.20
2019-02-19T09:57:46.262Z,21.80
2019-02-19T10:02:48.014Z,18.13
2019-02-19T10:07:50.131Z,16.30
2019-02-19T10:12:51.995Z,16.43
2019-02-19T10:17:53.743Z,23.57
2019-02-19T10:22:55.913Z,17.00
2019-02-19T10:27:57.715Z,19.43
2019-02-19T10:32:59.516Z,16.27
2019-02-19T10:38:01.580Z,17.50
2019-02-19T10:43:03.241Z,21.40
2019-02-19T10:48:05.127Z,19.60
2019-02-19T10:53:06.927Z,15.93
2019-02-19T10:58:08.732Z,15.33
2019-02-19T11:03:10.537Z,13.90
2019-02-19T11:08:13.060Z,18.10
2019-02-19T11:13:14.858Z,17.50
2019-02-19T11:18:16.659Z,13.40
2019-02-19T11:23:18.403Z,19.87
2019-02-19T11:28:20.157Z,17.93
2019-02-19T11:33:21.961Z,17.40
2019-02-19T11:38:24.173Z,19.20
2019-02-19T11:43:26.694Z,18.83
2019-02-19T11:48:36.606Z,18.20
2019-02-19T11:53:32.352Z,19.60
2019-02-19T11:58:34.031Z,17.40
2019-02-19T12:03:35.891Z,16.03
2019-02-19T12:08:39.212Z,13.60
2019-02-19T12:13:41.299Z,18.20
2019-02-19T12:18:46.221Z,16.80
2019-02-19T12:23:46.850Z,17.90
2019-02-19T12:28:56.799Z,15.97
2019-02-19T12:33:59.430Z,12.60
2019-02-19T12:39:01.361Z,14.03
2019-02-19T12:44:03.324Z,13.93
2019-02-19T12:49:05.175Z,12.10
2019-02-19T12:54:07.223Z,14.57
2019-02-19T12:59:09.299Z,14.50
2019-02-19T13:04:11.089Z,12.33
2019-02-19T13:09:13.404Z,12.73
2019-02-19T13:14:15.184Z,15.67
2019-02-19T13:19:17.005Z,10.40
2019-02-19T13:24:18.789Z,12.67
2019-02-19T13:29:21.053Z,12.00
2019-02-19T13:34:26.014Z,12.20
2019-02-19T13:39:28.374Z,13.50
2019-02-19T13:44:30.304Z,9.47
2019-02-19T13:49:33.340Z,13.87
2019-02-19T13:54:35.150Z,12.23
2019-02-19T13:59:36.924Z,11.10
2019-02-19T14:04:38.677Z,9.33
2019-02-19T14:09:40.937Z,10.80
2019-02-19T14:14:44.575Z,9.00
2019-02-19T14:19:48.214Z,13.97
2019-02-19T14:24:51.786Z,12.90
2019-02-19T14:30:07.344Z,11.87
2019-02-19T14:35:27.717Z,12.80
2019-02-19T14:40:49.346Z,10.97
2019-02-19T14:46:09.813Z,11.23
2019-02-19T14:51:22.479Z,12.30
2019-02-19T14:56:31.125Z,9.57
2019-02-19T15:01:34.976Z,9.80
2019-02-19T15:06:45.268Z,11.80
2019-02-19T15:11:55.063Z,11.93
2019-02-19T15:17:15.532Z,9.70
2019-02-19T15:22:35.935Z,8.93
2019-02-19T15:27:42.461Z,8.87
2019-02-19T15:32:51.949Z,11.27
2019-02-19T15:38:07.871Z,11.00
2019-02-19T15:43:30.151Z,7.70
2019-02-19T15:48:50.624Z,9.50
2019-02-19T15:54:13.251Z,10.63
2019-02-19T15:59:20.703Z,9.33
2019-02-19T16:04:28.050Z,11.73
2019-02-19T16:09:50.248Z,9.50
2019-02-19T16:14:54.273Z,12.00
2019-02-19T16:20:04.067Z,13.07
2019-02-19T16:25:14.369Z,10.47
2019-02-19T16:30:21.078Z,11.00
2019-02-19T16:35:24.717Z,13.03
2019-02-19T16:40:31.431Z,11.10
2019-02-19T16:45:41.258Z,12.57
2019-02-19T16:50:44.856Z,13.43
2019-02-19T16:55:48.596Z,8.90
2019-02-19T17:01:01.472Z,11.17
2019-02-19T17:06:12.963Z,10.93
2019-02-19T17:11:16.664Z,9.27
2019-02-19T17:16:26.805Z,7.90
2019-02-19T17:21:31.244Z,10.50
2019-02-19T17:26:54.874Z,7.90
2019-02-19T17:32:15.781Z,8.67
2019-02-19T17:37:19.793Z,10.10
2019-02-19T17:42:41.085Z,10.00
2019-02-19T17:48:03.707Z,7.20
2019-02-19T17:53:09.122Z,13.03
2019-02-19T17:58:15.628Z,11.70
2019-02-19T18:03:25.802Z,10.87
2019-02-19T18:08:35.498Z,12.80
2019-02-19T18:13:48.188Z,12.67
2019-02-19T18:18:50.208Z,8.20
2019-02-19T18:23:52.270Z,11.50
2019-02-19T18:28:54.914Z,8.20
2019-02-19T18:33:57.209Z,12.00
2019-02-19T18:38:59.222Z,10.57
2019-02-19T18:44:01.168Z,14.53
2019-02-19T18:49:03.260Z,13.60
2019-02-19T18:54:05.323Z,8.63
2019-02-19T18:59:08.025Z,11.00
2019-02-19T19:04:10.547Z,9.10
2019-02-19T19:09:13.962Z,11.90
2019-02-19T19:14:15.964Z,8.53
2019-02-19T19:19:17.941Z,10.67
2019-02-19T19:24:22.097Z,8.73
2019-02-19T19:29:27.333Z,9.13
2019-02-19T19:34:29.682Z,8.17
2019-02-19T19:39:32.839Z,10.27
2019-02-19T19:44:35.400Z,11.53
2019-02-19T19:49:38.075Z,12.90
2019-02-19T19:54:44.098Z,12.87
2019-02-19T19:59:48.951Z,12.30
2019-02-19T20:04:52.037Z,8.80
2019-02-19T20:09:54.605Z,9.73
2019-02-19T20:14:56.504Z,8.10
2019-02-19T20:20:01.073Z,8.50
2019-02-19T20:25:05.454Z,9.10
2019-02-19T20:30:15.810Z,7.57
2019-02-19T20:35:18.354Z,7.83
2019-02-19T20:40:21.480Z,7.73
2019-02-19T20:45:25.323Z,9.10
2019-02-19T20:50:28.906Z,9.53
2019-02-19T20:55:36.939Z,7.90
2019-02-19T21:00:36.902Z,9.90
2019-02-19T21:05:39.393Z,9.00
2019-02-19T21:10:42.477Z,11.20
2019-02-19T21:15:46.735Z,9.30
2019-02-19T21:20:48.735Z,10.80
2019-02-19T21:25:51.557Z,12.10
2019-02-19T21:30:53.564Z,11.53
2019-02-19T21:35:58.087Z,10.80
2019-02-19T21:41:00.135Z,10.87
2019-02-19T21:46:07.448Z,9.47
2019-02-19T21:51:10.506Z,8.37
2019-02-19T21:56:12.915Z,12.60
2019-02-19T22:01:17.578Z,12.30
2019-02-19T22:06:19.981Z,11.80
2019-02-19T22:11:21.777Z,10.23
2019-02-19T22:16:23.693Z,9.30
2019-02-19T22:21:27.275Z,10.10
2019-02-19T22:26:29.134Z,10.80
2019-02-19T22:31:30.928Z,8.77
2019-02-19T22:36:32.839Z,8.87
2019-02-19T22:41:34.636Z,8.10
2019-02-19T22:46:36.438Z,8.70
2019-02-19T22:51:38.219Z,10.87
2019-02-19T22:56:39.901Z,11.10
2019-02-19T23:01:46.478Z,11.03
2019-02-19T23:06:48.160Z,13.20
2019-02-19T23:11:49.859Z,12.90
2019-02-19T23:16:51.554Z,12.53
2019-02-19T23:21:53.659Z,13.10
2019-02-19T23:26:55.357Z,10.47
2019-02-19T23:31:57.517Z,10.33
2019-02-19T23:37:00.267Z,12.70
2019-02-19T23:42:02.260Z,11.53
2019-02-19T23:47:04.053Z,11.90
2019-02-19T23:52:05.855Z,11.20
2019-02-19T23:57:07.539Z,12.03
